SEGU/GYE METAR and TAF weather

Enter ICAO airport designator
Station Type Date Time Source
SEGU METAR 2019/06/17 06:00 UTC NOAA

SEGU 170600Z 24007KT 9999 FEW010 BKN023 BKN100 25/21 Q1009 NOSIG RMK A2980


Station Type Date Time Source
SEGU Decoded METAR 2019/06/17 06:00 UTC NOAA

Guayaquil / Simon Bolivar, Ecuador (SEGU) 02-09S 079-53W 9M
Jun 17, 2019 - 02:00 AM EDT / 2019.06.17 0600 UTC
Wind: from the WSW (240 degrees) at 8 MPH (7 KT):0
Visibility: greater than 7 mile(s):0
Sky conditions: mostly cloudy
Temperature: 77 F (25 C)
Dew Point: 69 F (21 C)
Relative Humidity: 78%
Pressure (altimeter): 29.80 in. Hg (1009 hPa)
ob: SEGU 170600Z 24007KT 9999 FEW010 BKN023 BKN100 25/21 Q1009 NOSIG RMK A2980
cycle: 6

Station Type Date Time Source
SEGU TAF 2019/06/17 06:38 UTC NOAA

TAF SEGU 170420Z 1706/1806 22007KT 9999 BKN020 BKN090
BECMG 1713/1714 FEW020 SCT100
BECMG 1715/1716 14005KT
BECMG 1720/1721 BKN020 BKN090
FM180000 22010KT 9999 FEW020 BKN090 TX31/1719Z TN24/1711Z

Example: see airport list